createdAt,value
2022-08-17T00:00:43.725Z,67.75
2022-08-17T00:03:15.556Z,69.47
2022-08-17T00:05:47.946Z,70.65
2022-08-17T00:08:19.623Z,70.15
2022-08-17T00:10:48.175Z,70.85
2022-08-17T00:13:23.912Z,73.00
2022-08-17T00:15:52.721Z,76.13
2022-08-17T00:19:04.164Z,76.75
2022-08-17T00:21:11.926Z,76.47
2022-08-17T00:23:47.834Z,77.32
2022-08-17T00:26:44.598Z,79.75
2022-08-17T00:29:07.313Z,75.55
2022-08-17T00:31:36.702Z,78.38
2022-08-17T00:34:08.833Z,79.72
2022-08-17T00:36:36.920Z,78.88
2022-08-17T00:39:05.662Z,81.97
2022-08-17T00:41:35.807Z,80.20
2022-08-17T00:44:06.158Z,84.38
2022-08-17T00:47:26.226Z,96.53
2022-08-17T00:50:23.114Z,101.65
2022-08-17T00:53:02.307Z,99.65
2022-08-17T00:58:42.765Z,99.65
2022-08-17T01:01:21.860Z,99.28
2022-08-17T01:07:13.145Z,93.38
2022-08-17T01:09:42.696Z,95.10
2022-08-17T01:12:12.185Z,89.40
2022-08-17T01:14:41.135Z,87.03
2022-08-17T01:17:10.538Z,88.55
2022-08-17T01:19:44.768Z,87.63
2022-08-17T01:22:23.488Z,85.82
2022-08-17T01:24:57.152Z,83.30
2022-08-17T01:27:26.835Z,90.13
2022-08-17T01:29:58.768Z,87.97
2022-08-17T01:32:27.591Z,88.82
2022-08-17T01:34:56.534Z,84.28
2022-08-17T01:37:32.385Z,74.28
2022-08-17T01:40:06.856Z,66.13
2022-08-17T01:42:40.569Z,64.20
2022-08-17T01:45:16.857Z,61.13
2022-08-17T01:47:45.752Z,61.25
2022-08-17T01:50:18.215Z,58.65
2022-08-17T01:52:50.370Z,58.25
2022-08-17T01:55:27.189Z,60.08
2022-08-17T01:57:58.186Z,62.00
2022-08-17T02:00:28.263Z,60.65
2022-08-17T02:03:17.271Z,57.63
2022-08-17T02:05:48.568Z,66.38
2022-08-17T02:08:20.417Z,64.18
2022-08-17T02:11:00.904Z,65.65
2022-08-17T02:13:29.934Z,65.13
2022-08-17T02:15:58.890Z,63.22
2022-08-17T02:18:28.151Z,64.40
2022-08-17T02:20:59.371Z,63.17
2022-08-17T02:23:33.197Z,62.53
2022-08-17T02:26:05.883Z,62.30
2022-08-17T02:28:34.263Z,59.25
2022-08-17T02:31:06.503Z,57.70
2022-08-17T02:33:42.246Z,55.45
2022-08-17T02:36:13.890Z,57.58
2022-08-17T02:38:44.793Z,56.55
2022-08-17T02:41:13.074Z,52.63
2022-08-17T02:43:41.177Z,55.15
2022-08-17T02:46:09.962Z,51.63
2022-08-17T02:48:38.081Z,50.90
2022-08-17T02:51:06.214Z,49.80
2022-08-17T02:53:36.191Z,46.20
2022-08-17T02:56:06.164Z,40.08
2022-08-17T02:58:35.396Z,36.92
2022-08-17T03:01:04.842Z,33.25
2022-08-17T03:03:33.140Z,30.58
2022-08-17T03:06:01.804Z,30.08
2022-08-17T03:08:30.273Z,29.15
2022-08-17T03:10:58.725Z,30.05
2022-08-17T03:13:28.332Z,29.40
2022-08-17T03:15:56.669Z,30.00
2022-08-17T03:18:26.367Z,27.98
2022-08-17T03:20:55.416Z,28.95
2022-08-17T03:23:25.521Z,28.80
2022-08-17T03:25:55.088Z,27.20
2022-08-17T03:28:24.807Z,25.08
2022-08-17T03:30:54.562Z,25.98
2022-08-17T03:33:23.257Z,27.98
2022-08-17T03:35:52.091Z,28.17
2022-08-17T03:38:20.510Z,27.17
2022-08-17T03:40:57.676Z,26.75
2022-08-17T03:43:28.618Z,27.45
2022-08-17T03:46:27.800Z,27.27
2022-08-17T03:49:15.116Z,28.05
2022-08-17T03:52:00.556Z,29.15
2022-08-17T03:54:46.130Z,32.28
2022-08-17T03:57:14.881Z,32.97
2022-08-17T03:59:43.155Z,33.35
2022-08-17T04:02:18.627Z,31.88
2022-08-17T04:04:46.974Z,33.28
2022-08-17T04:07:15.017Z,34.47
2022-08-17T04:09:43.690Z,34.00
2022-08-17T04:12:12.696Z,33.92
2022-08-17T04:14:53.029Z,34.28
2022-08-17T04:17:26.904Z,35.85
2022-08-17T04:19:58.120Z,34.63
2022-08-17T04:22:32.572Z,37.38
2022-08-17T04:25:17.002Z,35.83
2022-08-17T04:27:45.504Z,37.33
2022-08-17T04:30:14.482Z,38.15
2022-08-17T04:33:03.436Z,38.60
2022-08-17T04:35:36.907Z,38.70
2022-08-17T04:38:05.120Z,40.78
2022-08-17T04:40:50.619Z,41.17
2022-08-17T04:43:22.470Z,42.78
2022-08-17T04:45:55.873Z,42.30
2022-08-17T04:48:29.662Z,41.63
2022-08-17T04:51:07.019Z,45.63
2022-08-17T04:53:35.102Z,48.22
2022-08-17T04:56:03.296Z,49.47
2022-08-17T04:58:33.256Z,46.92
2022-08-17T05:01:01.771Z,46.25
2022-08-17T05:03:31.944Z,48.25
2022-08-17T05:06:00.397Z,49.17
2022-08-17T05:08:28.691Z,50.22
2022-08-17T05:10:56.793Z,48.40
2022-08-17T05:13:26.826Z,49.97
2022-08-17T05:15:57.897Z,47.40
2022-08-17T05:18:26.301Z,48.83
2022-08-17T05:20:56.722Z,46.72
2022-08-17T05:23:42.723Z,49.05
2022-08-17T05:26:21.978Z,48.47
2022-08-17T05:28:59.517Z,50.83
2022-08-17T05:31:29.830Z,47.00
2022-08-17T05:34:02.532Z,47.75
2022-08-17T05:36:38.096Z,48.97
2022-08-17T05:39:17.088Z,47.80
2022-08-17T05:41:47.702Z,49.03
2022-08-17T05:44:16.473Z,47.75
2022-08-17T05:46:50.030Z,47.72
2022-08-17T05:49:22.382Z,48.55
2022-08-17T05:52:18.740Z,44.08
2022-08-17T05:55:03.168Z,43.97
2022-08-17T05:57:53.822Z,45.83
2022-08-17T06:00:30.732Z,44.92
2022-08-17T06:03:20.355Z,45.10
2022-08-17T06:06:01.551Z,46.08
2022-08-17T06:08:39.713Z,46.20
2022-08-17T06:11:19.823Z,46.13
2022-08-17T06:14:30.610Z,45.13
2022-08-17T06:17:11.917Z,45.25
2022-08-17T06:19:45.099Z,43.88
2022-08-17T06:22:16.742Z,46.92
2022-08-17T06:24:50.219Z,47.03
2022-08-17T06:27:26.415Z,46.42
2022-08-17T06:30:02.826Z,43.72
2022-08-17T06:32:33.966Z,45.67
2022-08-17T06:35:11.075Z,43.63
2022-08-17T06:38:01.312Z,44.03
2022-08-17T06:41:06.125Z,41.53
2022-08-17T06:43:50.540Z,42.53
2022-08-17T06:46:25.754Z,41.88
2022-08-17T06:49:17.251Z,41.65
2022-08-17T06:51:58.196Z,42.47
2022-08-17T06:54:46.610Z,43.63
2022-08-17T06:57:22.486Z,42.95
2022-08-17T07:00:01.626Z,41.70
2022-08-17T07:02:52.645Z,40.20
2022-08-17T07:05:25.214Z,41.15
2022-08-17T07:08:08.089Z,43.13
2022-08-17T07:10:40.792Z,41.80
2022-08-17T07:13:31.767Z,40.00
2022-08-17T07:16:25.500Z,40.42
2022-08-17T07:19:33.571Z,41.58
2022-08-17T07:25:55.052Z,40.83
2022-08-17T07:29:02.482Z,40.42
2022-08-17T07:31:40.326Z,41.33
2022-08-17T07:34:23.390Z,37.45
2022-08-17T07:37:08.509Z,41.28
2022-08-17T07:40:15.487Z,43.10
2022-08-17T07:43:33.337Z,47.17
2022-08-17T07:46:37.632Z,40.45
2022-08-17T07:49:39.991Z,41.83
2022-08-17T07:52:51.998Z,44.60
2022-08-17T07:55:30.962Z,41.53
2022-08-17T07:58:23.687Z,36.63
2022-08-17T08:01:09.459Z,35.78
2022-08-17T08:03:53.027Z,33.80
2022-08-17T08:06:31.607Z,33.88
2022-08-17T08:09:01.129Z,34.70
2022-08-17T08:11:38.316Z,32.10
2022-08-17T08:14:29.584Z,34.10
2022-08-17T08:17:09.390Z,34.65
2022-08-17T08:19:40.792Z,34.92
2022-08-17T08:22:15.220Z,36.47
2022-08-17T08:25:03.691Z,36.08
2022-08-17T08:27:45.703Z,34.80
2022-08-17T08:30:16.773Z,34.75
2022-08-17T08:33:04.249Z,38.08
2022-08-17T08:35:34.571Z,33.92
2022-08-17T08:38:20.072Z,32.47
2022-08-17T08:41:02.512Z,32.90
2022-08-17T08:43:42.438Z,32.28
2022-08-17T08:46:25.151Z,32.22
2022-08-17T08:49:26.199Z,32.75
2022-08-17T08:52:04.253Z,30.02
2022-08-17T08:54:46.179Z,27.45
2022-08-17T08:57:26.685Z,25.98
2022-08-17T09:00:12.773Z,26.95
2022-08-17T09:02:56.470Z,24.92
2022-08-17T09:05:39.280Z,26.98
2022-08-17T09:08:17.346Z,28.17
2022-08-17T09:10:57.810Z,31.85
2022-08-17T09:13:34.662Z,29.60
2022-08-17T09:16:11.667Z,31.80
2022-08-17T09:19:00.337Z,31.90
2022-08-17T09:21:47.795Z,36.70
2022-08-17T09:24:25.305Z,34.40
2022-08-17T09:27:00.977Z,38.92
2022-08-17T09:29:35.157Z,35.63
2022-08-17T09:32:13.178Z,35.17
2022-08-17T09:34:49.301Z,35.38
2022-08-17T09:37:23.826Z,36.67
2022-08-17T09:40:00.547Z,35.58
2022-08-17T09:42:33.261Z,33.50
2022-08-17T09:45:15.466Z,36.55
2022-08-17T09:47:51.608Z,36.65
2022-08-17T09:50:55.496Z,35.25
2022-08-17T09:53:17.414Z,32.28
2022-08-17T09:56:14.283Z,35.47
2022-08-17T09:58:57.843Z,36.38
2022-08-17T10:01:36.857Z,35.40
2022-08-17T10:04:26.017Z,35.15
2022-08-17T10:07:06.170Z,35.55
2022-08-17T10:09:55.889Z,30.73
2022-08-17T10:12:36.847Z,31.17
2022-08-17T10:15:25.087Z,31.50
2022-08-17T10:18:31.990Z,30.45
2022-08-17T10:21:24.960Z,29.60
2022-08-17T10:24:17.857Z,31.23
2022-08-17T10:26:56.477Z,31.48
2022-08-17T10:29:32.694Z,31.35
2022-08-17T10:32:25.524Z,31.77
2022-08-17T10:35:25.629Z,31.60
2022-08-17T10:38:15.568Z,31.05
2022-08-17T10:40:49.581Z,30.40
2022-08-17T10:43:32.991Z,31.48
2022-08-17T10:46:30.051Z,30.52
2022-08-17T10:49:25.179Z,28.98
2022-08-17T10:51:55.090Z,26.42
2022-08-17T10:54:58.777Z,26.13
2022-08-17T10:57:40.089Z,27.40
2022-08-17T11:00:17.069Z,28.38
2022-08-17T11:02:51.853Z,28.70
2022-08-17T11:05:50.339Z,27.33
2022-08-17T11:08:36.560Z,30.13
2022-08-17T11:11:36.034Z,28.98
2022-08-17T11:14:18.867Z,31.13
2022-08-17T11:17:16.427Z,32.55
2022-08-17T11:20:10.601Z,31.15
2022-08-17T11:23:20.955Z,32.30
2022-08-17T11:25:53.718Z,34.30
2022-08-17T11:28:28.168Z,36.00
2022-08-17T11:31:03.790Z,36.70
2022-08-17T11:34:05.289Z,39.65
2022-08-17T11:37:08.902Z,39.40
2022-08-17T11:40:06.481Z,40.45
2022-08-17T11:42:55.412Z,39.13
2022-08-17T11:45:37.715Z,39.08
2022-08-17T11:48:32.534Z,39.28
2022-08-17T11:51:30.242Z,37.55
2022-08-17T11:54:31.269Z,37.65
2022-08-17T11:56:52.873Z,39.40
2022-08-17T11:59:59.875Z,40.28
2022-08-17T12:02:48.224Z,41.80
2022-08-17T12:05:35.370Z,41.67
2022-08-17T12:08:20.025Z,43.50
2022-08-17T12:11:03.267Z,42.60
2022-08-17T12:13:39.381Z,44.95
2022-08-17T12:16:10.238Z,43.75
2022-08-17T12:18:42.279Z,44.55
2022-08-17T12:21:40.982Z,45.58
2022-08-17T12:24:32.188Z,46.75
2022-08-17T12:27:10.661Z,45.67
2022-08-17T12:29:52.144Z,48.42
2022-08-17T12:32:33.881Z,48.15
2022-08-17T12:35:20.159Z,47.05
2022-08-17T12:37:56.331Z,44.97
2022-08-17T12:40:29.478Z,41.97
2022-08-17T12:43:20.587Z,45.13
2022-08-17T12:46:14.890Z,45.58
2022-08-17T12:49:08.466Z,46.00
2022-08-17T12:51:46.877Z,46.75
2022-08-17T13:10:09.451Z,45.97
2022-08-17T13:12:40.334Z,46.10
2022-08-17T13:15:43.261Z,44.70
2022-08-17T13:22:25.227Z,46.95
2022-08-17T13:25:19.617Z,43.97
2022-08-17T13:27:57.262Z,40.40
2022-08-17T13:31:17.846Z,41.40
2022-08-17T13:33:44.977Z,40.78
2022-08-17T13:36:50.787Z,42.15
2022-08-17T13:42:50.326Z,44.92
2022-08-17T13:45:50.712Z,44.45
2022-08-17T13:48:31.308Z,42.78
2022-08-17T13:51:33.257Z,43.67
2022-08-17T13:54:25.675Z,42.22
2022-08-17T13:57:09.156Z,40.15
2022-08-17T13:59:55.088Z,43.05
2022-08-17T14:02:27.740Z,44.03
2022-08-17T14:05:01.231Z,40.67
2022-08-17T14:07:36.321Z,42.03
2022-08-17T14:10:13.386Z,44.05
2022-08-17T14:12:43.834Z,43.03
2022-08-17T14:15:20.472Z,45.63
2022-08-17T14:17:50.921Z,43.70
2022-08-17T14:20:21.700Z,42.20
2022-08-17T14:23:03.063Z,43.30
2022-08-17T14:25:33.002Z,42.75
2022-08-17T14:28:06.964Z,44.17
2022-08-17T14:30:35.788Z,43.25
2022-08-17T14:33:05.817Z,43.53
2022-08-17T14:35:34.573Z,42.28
2022-08-17T14:38:03.102Z,41.90
2022-08-17T14:40:34.801Z,42.33
2022-08-17T14:43:03.361Z,44.45
2022-08-17T14:45:34.336Z,42.85
2022-08-17T14:48:07.873Z,44.67
2022-08-17T14:50:41.746Z,44.55
2022-08-17T14:53:20.359Z,40.28
2022-08-17T14:55:51.574Z,40.28
2022-08-17T14:58:19.990Z,38.35
2022-08-17T15:00:53.721Z,36.20
2022-08-17T15:03:22.886Z,37.50
2022-08-17T15:05:51.202Z,37.67
2022-08-17T15:08:19.644Z,36.47
2022-08-17T15:11:11.798Z,39.13
2022-08-17T15:17:16.823Z,36.53
2022-08-17T15:19:45.479Z,32.28
2022-08-17T15:22:55.209Z,33.65
2022-08-17T15:25:27.609Z,32.53
2022-08-17T15:27:57.557Z,32.08
2022-08-17T15:30:30.269Z,29.67
2022-08-17T15:32:59.165Z,29.17
2022-08-17T15:35:33.384Z,27.20
2022-08-17T15:38:11.327Z,28.90
2022-08-17T15:40:44.510Z,28.27
2022-08-17T15:43:24.946Z,28.02
2022-08-17T15:46:02.607Z,28.02
2022-08-17T15:48:42.226Z,30.98
2022-08-17T15:51:13.103Z,33.72
2022-08-17T15:53:42.953Z,32.38
2022-08-17T15:56:13.719Z,33.35
2022-08-17T15:58:44.725Z,34.33
2022-08-17T16:02:23.209Z,31.95
2022-08-17T16:04:30.443Z,34.63
2022-08-17T16:07:03.658Z,32.15
2022-08-17T16:09:32.397Z,34.00
2022-08-17T16:12:13.617Z,34.00
2022-08-17T16:14:43.608Z,34.78
2022-08-17T16:17:29.602Z,32.38
2022-08-17T16:20:02.884Z,34.25
2022-08-17T16:22:36.238Z,34.00
2022-08-17T16:25:09.212Z,34.17
2022-08-17T16:27:37.629Z,34.13
2022-08-17T16:30:14.941Z,33.70
2022-08-17T16:32:47.694Z,34.08
2022-08-17T16:35:17.465Z,32.00
2022-08-17T16:37:49.143Z,33.45
2022-08-17T16:40:18.257Z,34.30
2022-08-17T16:42:49.016Z,34.47
2022-08-17T16:45:20.226Z,35.75
2022-08-17T16:47:50.092Z,34.03
2022-08-17T16:50:23.415Z,33.40
2022-08-17T16:52:52.673Z,33.75
2022-08-17T16:55:23.075Z,35.53
2022-08-17T16:57:51.260Z,32.28
2022-08-17T17:00:21.189Z,33.42
2022-08-17T17:02:50.292Z,31.17
2022-08-17T17:05:33.769Z,33.78
2022-08-17T17:08:07.800Z,33.13
2022-08-17T17:10:40.525Z,34.60
2022-08-17T17:13:20.029Z,33.13
2022-08-17T17:15:58.759Z,33.72
2022-08-17T17:18:37.377Z,34.28
2022-08-17T17:21:06.964Z,34.00
2022-08-17T17:23:44.353Z,32.28
2022-08-17T17:26:29.121Z,32.65
2022-08-17T17:29:06.409Z,33.08
2022-08-17T17:31:42.416Z,33.78
2022-08-17T17:34:15.860Z,33.80
2022-08-17T17:36:51.552Z,33.15
2022-08-17T17:39:23.673Z,33.33
2022-08-17T17:41:56.207Z,35.10
2022-08-17T17:44:30.096Z,32.47
2022-08-17T17:47:02.508Z,31.58
2022-08-17T17:49:35.613Z,33.92
2022-08-17T17:52:14.323Z,35.08
2022-08-17T17:54:58.330Z,32.90
2022-08-17T17:57:38.693Z,34.38
2022-08-17T18:00:14.116Z,32.97
2022-08-17T18:03:01.658Z,33.08
2022-08-17T18:05:44.617Z,33.72
2022-08-17T18:08:31.033Z,33.53
2022-08-17T18:11:16.109Z,32.63
2022-08-17T18:14:07.597Z,31.92
2022-08-17T18:16:35.879Z,31.73
2022-08-17T18:19:06.803Z,33.47
2022-08-17T18:21:38.922Z,31.83
2022-08-17T18:24:12.626Z,30.92
2022-08-17T18:26:50.836Z,30.15
2022-08-17T18:29:45.664Z,32.53
2022-08-17T18:32:23.668Z,30.38
2022-08-17T18:34:55.516Z,30.00
2022-08-17T18:37:45.113Z,30.38
2022-08-17T18:40:36.401Z,30.15
2022-08-17T18:43:26.601Z,28.98
2022-08-17T18:45:57.579Z,29.08
2022-08-17T18:48:33.295Z,28.63
2022-08-17T18:51:39.889Z,28.27
2022-08-17T18:54:21.255Z,26.35
2022-08-17T18:56:57.084Z,26.60
2022-08-17T18:59:34.359Z,26.65
2022-08-17T19:02:37.334Z,26.42
2022-08-17T19:05:14.661Z,25.80
2022-08-17T19:07:46.354Z,26.48
2022-08-17T19:10:25.371Z,26.15
2022-08-17T19:13:00.692Z,25.40
2022-08-17T19:15:37.095Z,28.13
2022-08-17T19:18:15.244Z,27.30
2022-08-17T19:20:50.721Z,27.23
2022-08-17T19:23:29.065Z,27.60
2022-08-17T19:26:01.734Z,27.25
2022-08-17T19:28:37.920Z,27.48
2022-08-17T19:31:17.385Z,26.60
2022-08-17T19:33:48.123Z,26.15
2022-08-17T19:36:32.991Z,25.52
2022-08-17T19:39:20.547Z,26.65
2022-08-17T19:41:56.296Z,26.02
2022-08-17T19:44:47.255Z,25.67
2022-08-17T19:47:43.777Z,26.30
2022-08-17T19:50:22.281Z,26.77
2022-08-17T19:53:07.535Z,27.13
2022-08-17T19:55:47.716Z,26.20
2022-08-17T19:58:33.425Z,26.02
2022-08-17T20:01:02.507Z,23.42
2022-08-17T20:03:38.006Z,22.77
2022-08-17T20:06:13.544Z,23.65
2022-08-17T20:08:54.817Z,21.90
2022-08-17T20:11:29.713Z,22.58
2022-08-17T20:14:04.806Z,22.65
2022-08-17T20:16:34.823Z,21.65
2022-08-17T20:19:09.743Z,21.80
2022-08-17T20:21:44.760Z,22.23
2022-08-17T20:24:22.881Z,24.00
2022-08-17T20:26:58.568Z,22.73
2022-08-17T20:30:02.542Z,22.45
2022-08-17T20:32:35.298Z,22.25
2022-08-17T20:35:10.637Z,21.67
2022-08-17T20:37:44.312Z,21.25
2022-08-17T20:40:21.467Z,21.63
2022-08-17T20:42:51.131Z,22.52
2022-08-17T20:45:46.584Z,21.33
2022-08-17T20:48:37.628Z,21.05
2022-08-17T20:51:28.515Z,22.23
2022-08-17T20:54:35.123Z,24.58
2022-08-17T20:57:09.231Z,25.85
2022-08-17T21:00:14.684Z,25.85
2022-08-17T21:02:44.905Z,21.45
2022-08-17T21:05:38.335Z,22.55
2022-08-17T21:08:15.477Z,22.55
2022-08-17T21:10:47.068Z,23.88
2022-08-17T21:13:48.594Z,25.08
2022-08-17T21:16:49.064Z,25.00
2022-08-17T21:19:31.158Z,25.50
2022-08-17T21:22:09.837Z,25.58
2022-08-17T21:24:49.966Z,23.60
2022-08-17T21:27:30.125Z,25.38
2022-08-17T21:30:21.872Z,24.58
2022-08-17T21:33:25.445Z,25.45
2022-08-17T21:36:17.252Z,24.70
2022-08-17T21:38:57.955Z,25.70
2022-08-17T21:41:29.481Z,25.75
2022-08-17T21:44:07.237Z,25.30
2022-08-17T21:46:40.165Z,23.60
2022-08-17T21:49:13.964Z,23.67
2022-08-17T21:51:49.946Z,25.38
2022-08-17T21:54:30.872Z,23.23
2022-08-17T21:57:01.299Z,24.65
2022-08-17T21:59:32.941Z,24.00
2022-08-17T22:02:03.227Z,23.92
2022-08-17T22:04:34.878Z,22.40
2022-08-17T22:07:05.230Z,22.83
2022-08-17T22:09:35.784Z,22.33
2022-08-17T22:12:07.981Z,22.98
2022-08-17T22:14:53.065Z,23.48
2022-08-17T22:17:23.990Z,23.45
2022-08-17T22:19:57.408Z,24.02
2022-08-17T22:22:31.384Z,23.52
2022-08-17T22:25:03.107Z,23.50
2022-08-17T22:27:55.514Z,23.50
2022-08-17T22:30:34.495Z,24.83
2022-08-17T22:33:18.754Z,24.42
2022-08-17T22:35:48.466Z,22.77
2022-08-17T22:38:33.815Z,22.55
2022-08-17T22:41:22.005Z,23.10
2022-08-17T22:43:50.748Z,23.60
2022-08-17T22:46:22.179Z,23.55
2022-08-17T22:48:52.817Z,23.80
2022-08-17T22:51:24.729Z,23.63
2022-08-17T22:54:12.196Z,25.38
2022-08-17T22:57:06.947Z,24.90
2022-08-17T22:59:43.661Z,24.50
2022-08-17T23:02:24.697Z,24.67
2022-08-17T23:04:55.639Z,24.10
2022-08-17T23:07:25.639Z,26.02
2022-08-17T23:09:55.132Z,25.23
2022-08-17T23:12:27.478Z,25.88
2022-08-17T23:15:01.686Z,26.10
2022-08-17T23:17:36.877Z,24.67
2022-08-17T23:20:08.588Z,25.25
2022-08-17T23:22:52.131Z,26.17
2022-08-17T23:25:26.419Z,24.80
2022-08-17T23:27:54.588Z,26.33
2022-08-17T23:30:31.186Z,26.02
2022-08-17T23:33:01.336Z,26.55
2022-08-17T23:35:40.052Z,27.58
2022-08-17T23:38:14.621Z,28.38
2022-08-17T23:40:42.829Z,28.65
2022-08-17T23:43:24.877Z,28.73
2022-08-17T23:45:55.103Z,28.63
2022-08-17T23:48:32.666Z,28.80
2022-08-17T23:51:09.131Z,28.88
2022-08-17T23:53:44.205Z,29.90
2022-08-17T23:56:12.647Z,29.33
2022-08-17T23:58:43.263Z,29.35
